sensor_id;sensor_type;location;lat;lon;timestamp;pressure;altitude;pressure_sealevel;temperature;humidity
75247;BME280;63844;50.042;19.224;2024-02-26T00:01:09;97995.82;;;2.00;95.04
75247;BME280;63844;50.042;19.224;2024-02-26T00:03:41;97993.71;;;1.96;97.46
75247;BME280;63844;50.042;19.224;2024-02-26T00:05:18;97995.15;;;1.88;98.55
75247;BME280;63844;50.042;19.224;2024-02-26T00:06:55;97990.52;;;1.87;96.75
75247;BME280;63844;50.042;19.224;2024-02-26T00:08:32;97996.46;;;1.87;99.84
75247;BME280;63844;50.042;19.224;2024-02-26T00:10:09;97993.66;;;1.83;98.57
75247;BME280;63844;50.042;19.224;2024-02-26T00:11:45;97991.08;;;1.82;99.98
75247;BME280;63844;50.042;19.224;2024-02-26T00:13:22;97991.66;;;1.81;100.00
75247;BME280;63844;50.042;19.224;2024-02-26T00:14:58;97995.08;;;1.79;99.98
75247;BME280;63844;50.042;19.224;2024-02-26T00:16:35;97994.81;;;1.77;98.99
75247;BME280;63844;50.042;19.224;2024-02-26T00:18:11;97996.08;;;1.73;97.02
75247;BME280;63844;50.042;19.224;2024-02-26T00:19:47;97989.10;;;1.72;99.13
75247;BME280;63844;50.042;19.224;2024-02-26T00:21:24;97988.92;;;1.72;98.93
75247;BME280;63844;50.042;19.224;2024-02-26T00:23:00;97987.92;;;1.71;99.52
75247;BME280;63844;50.042;19.224;2024-02-26T00:24:37;97991.11;;;1.71;98.54
75247;BME280;63844;50.042;19.224;2024-02-26T00:26:13;97988.92;;;1.69;96.20
75247;BME280;63844;50.042;19.224;2024-02-26T00:27:51;97987.44;;;1.67;95.01
75247;BME280;63844;50.042;19.224;2024-02-26T00:29:28;97988.02;;;1.66;98.27
75247;BME280;63844;50.042;19.224;2024-02-26T00:31:04;97988.23;;;1.65;99.42
75247;BME280;63844;50.042;19.224;2024-02-26T00:32:41;97987.08;;;1.63;99.77
75247;BME280;63844;50.042;19.224;2024-02-26T00:34:18;97984.16;;;1.62;100.00
75247;BME280;63844;50.042;19.224;2024-02-26T00:35:54;97982.58;;;1.63;99.90
75247;BME280;63844;50.042;19.224;2024-02-26T00:37:31;97978.02;;;1.59;98.42
75247;BME280;63844;50.042;19.224;2024-02-26T00:39:07;97975.28;;;1.59;99.95
75247;BME280;63844;50.042;19.224;2024-02-26T00:40:44;97975.30;;;1.58;100.00
75247;BME280;63844;50.042;19.224;2024-02-26T00:42:21;97978.79;;;1.54;99.28
75247;BME280;63844;50.042;19.224;2024-02-26T00:43:57;97975.70;;;1.49;100.00
75247;BME280;63844;50.042;19.224;2024-02-26T00:45:34;97979.89;;;1.48;100.00
75247;BME280;63844;50.042;19.224;2024-02-26T00:47:10;97980.11;;;1.48;100.00
75247;BME280;63844;50.042;19.224;2024-02-26T00:48:47;97978.67;;;1.49;99.85
75247;BME280;63844;50.042;19.224;2024-02-26T00:50:23;97978.57;;;1.51;100.00
75247;BME280;63844;50.042;19.224;2024-02-26T00:52:00;97970.70;;;1.52;100.00
75247;BME280;63844;50.042;19.224;2024-02-26T00:53:36;97973.71;;;1.50;99.90
75247;BME280;63844;50.042;19.224;2024-02-26T00:55:13;97973.05;;;1.50;99.57
75247;BME280;63844;50.042;19.224;2024-02-26T00:56:49;97978.95;;;1.46;97.38
75247;BME280;63844;50.042;19.224;2024-02-26T00:58:26;97979.48;;;1.43;96.93
75247;BME280;63844;50.042;19.224;2024-02-26T01:00:03;97980.91;;;1.42;98.13
75247;BME280;63844;50.042;19.224;2024-02-26T01:01:39;97980.13;;;1.43;98.48
75247;BME280;63844;50.042;19.224;2024-02-26T01:03:17;97975.42;;;1.43;98.68
75247;BME280;63844;50.042;19.224;2024-02-26T01:04:53;97976.70;;;1.46;99.49
75247;BME280;63844;50.042;19.224;2024-02-26T01:06:30;97979.08;;;1.48;99.16
75247;BME280;63844;50.042;19.224;2024-02-26T01:08:06;97978.98;;;1.46;96.86
75247;BME280;63844;50.042;19.224;2024-02-26T01:09:43;97984.23;;;1.46;98.81
75247;BME280;63844;50.042;19.224;2024-02-26T01:11:19;97978.84;;;1.45;98.72
75247;BME280;63844;50.042;19.224;2024-02-26T01:12:56;97980.35;;;1.46;100.00
75247;BME280;63844;50.042;19.224;2024-02-26T01:14:32;97981.82;;;1.48;100.00
75247;BME280;63844;50.042;19.224;2024-02-26T01:16:09;97977.43;;;1.45;98.61
75247;BME280;63844;50.042;19.224;2024-02-26T01:17:47;97977.77;;;1.42;98.06
75247;BME280;63844;50.042;19.224;2024-02-26T01:19:23;97975.38;;;1.44;99.62
75247;BME280;63844;50.042;19.224;2024-02-26T01:21:00;97975.31;;;1.46;100.00
75247;BME280;63844;50.042;19.224;2024-02-26T01:22:36;97978.40;;;1.43;100.00
75247;BME280;63844;50.042;19.224;2024-02-26T01:24:13;97975.66;;;1.42;100.00
75247;BME280;63844;50.042;19.224;2024-02-26T01:25:49;97978.50;;;1.45;100.00
75247;BME280;63844;50.042;19.224;2024-02-26T01:27:26;97975.15;;;1.46;100.00
75247;BME280;63844;50.042;19.224;2024-02-26T01:29:03;97974.11;;;1.46;99.32
75247;BME280;63844;50.042;19.224;2024-02-26T01:30:40;97970.34;;;1.44;98.32
75247;BME280;63844;50.042;19.224;2024-02-26T01:32:16;97975.21;;;1.41;100.00
75247;BME280;63844;50.042;19.224;2024-02-26T01:33:53;97978.70;;;1.37;100.00
75247;BME280;63844;50.042;19.224;2024-02-26T01:35:29;97974.37;;;1.36;100.00
75247;BME280;63844;50.042;19.224;2024-02-26T01:37:06;97974.30;;;1.38;100.00
75247;BME280;63844;50.042;19.224;2024-02-26T01:38:42;97976.48;;;1.36;100.00
75247;BME280;63844;50.042;19.224;2024-02-26T01:40:19;97971.81;;;1.34;100.00
75247;BME280;63844;50.042;19.224;2024-02-26T01:41:56;97971.27;;;1.35;100.00
75247;BME280;63844;50.042;19.224;2024-02-26T01:43:32;97971.58;;;1.36;99.50
75247;BME280;63844;50.042;19.224;2024-02-26T01:45:14;97974.02;;;1.36;98.87
75247;BME280;63844;50.042;19.224;2024-02-26T01:46:52;97973.70;;;1.35;97.75
75247;BME280;63844;50.042;19.224;2024-02-26T01:48:30;97968.65;;;1.31;97.16
75247;BME280;63844;50.042;19.224;2024-02-26T01:50:07;97971.24;;;1.28;97.01
75247;BME280;63844;50.042;19.224;2024-02-26T01:51:44;97970.92;;;1.27;98.05
75247;BME280;63844;50.042;19.224;2024-02-26T01:53:21;97972.59;;;1.29;99.57
75247;BME280;63844;50.042;19.224;2024-02-26T01:54:58;97972.98;;;1.28;98.48
75247;BME280;63844;50.042;19.224;2024-02-26T01:56:38;97973.05;;;1.27;98.64
75247;BME280;63844;50.042;19.224;2024-02-26T01:58:15;97973.73;;;1.27;97.85
75247;BME280;63844;50.042;19.224;2024-02-26T01:59:52;97973.81;;;1.25;99.23
75247;BME280;63844;50.042;19.224;2024-02-26T02:01:30;97978.59;;;1.20;100.00
75247;BME280;63844;50.042;19.224;2024-02-26T02:03:07;97976.24;;;1.18;100.00
75247;BME280;63844;50.042;19.224;2024-02-26T02:04:45;97973.01;;;1.16;100.00
75247;BME280;63844;50.042;19.224;2024-02-26T02:06:21;97973.56;;;1.15;100.00
75247;BME280;63844;50.042;19.224;2024-02-26T02:07:58;97970.83;;;1.14;100.00
75247;BME280;63844;50.042;19.224;2024-02-26T02:09:36;97975.40;;;1.13;100.00
75247;BME280;63844;50.042;19.224;2024-02-26T02:11:12;97974.30;;;1.10;99.98
75247;BME280;63844;50.042;19.224;2024-02-26T02:12:51;97974.21;;;1.08;99.31
75247;BME280;63844;50.042;19.224;2024-02-26T02:14:28;97973.11;;;1.05;98.77
75247;BME280;63844;50.042;19.224;2024-02-26T02:16:04;97976.91;;;1.02;99.35
75247;BME280;63844;50.042;19.224;2024-02-26T02:17:41;97974.98;;;0.99;99.80
75247;BME280;63844;50.042;19.224;2024-02-26T02:19:18;97977.54;;;0.96;99.96
75247;BME280;63844;50.042;19.224;2024-02-26T02:20:54;97973.02;;;0.96;99.67
75247;BME280;63844;50.042;19.224;2024-02-26T02:22:32;97968.50;;;0.95;99.92
75247;BME280;63844;50.042;19.224;2024-02-26T02:24:09;97970.42;;;0.95;100.00
75247;BME280;63844;50.042;19.224;2024-02-26T02:25:46;97968.61;;;0.93;99.30
75247;BME280;63844;50.042;19.224;2024-02-26T02:27:22;97968.80;;;0.89;100.00
75247;BME280;63844;50.042;19.224;2024-02-26T02:29:00;97971.64;;;0.87;100.00
75247;BME280;63844;50.042;19.224;2024-02-26T02:30:37;97971.59;;;0.85;100.00
75247;BME280;63844;50.042;19.224;2024-02-26T02:32:16;97976.41;;;0.82;100.00
75247;BME280;63844;50.042;19.224;2024-02-26T02:33:53;97979.20;;;0.82;100.00
75247;BME280;63844;50.042;19.224;2024-02-26T02:35:29;97983.26;;;0.81;100.00
75247;BME280;63844;50.042;19.224;2024-02-26T02:37:06;97982.79;;;0.80;100.00
75247;BME280;63844;50.042;19.224;2024-02-26T02:38:49;97981.82;;;0.78;99.84
75247;BME280;63844;50.042;19.224;2024-02-26T02:40:26;97985.02;;;0.76;99.56
75247;BME280;63844;50.042;19.224;2024-02-26T02:42:03;97985.48;;;0.74;99.35
75247;BME280;63844;50.042;19.224;2024-02-26T02:43:40;97978.34;;;0.74;99.06
75247;BME280;63844;50.042;19.224;2024-02-26T02:45:16;97979.41;;;0.73;99.74
75247;BME280;63844;50.042;19.224;2024-02-26T02:46:53;97981.16;;;0.73;100.00
75247;BME280;63844;50.042;19.224;2024-02-26T02:48:29;97981.86;;;0.69;100.00
75247;BME280;63844;50.042;19.224;2024-02-26T02:50:06;97984.08;;;0.65;100.00
75247;BME280;63844;50.042;19.224;2024-02-26T02:51:43;97981.01;;;0.64;100.00
75247;BME280;63844;50.042;19.224;2024-02-26T02:53:19;97980.94;;;0.61;100.00
75247;BME280;63844;50.042;19.224;2024-02-26T02:54:55;97979.88;;;0.62;100.00
75247;BME280;63844;50.042;19.224;2024-02-26T02:56:32;97980.38;;;0.62;100.00
75247;BME280;63844;50.042;19.224;2024-02-26T02:58:08;97978.77;;;0.59;99.93
75247;BME280;63844;50.042;19.224;2024-02-26T02:59:46;97978.80;;;0.58;99.94
75247;BME280;63844;50.042;19.224;2024-02-26T03:01:22;97974.93;;;0.59;100.00
75247;BME280;63844;50.042;19.224;2024-02-26T03:02:59;97971.59;;;0.60;100.00
75247;BME280;63844;50.042;19.224;2024-02-26T03:04:36;97979.59;;;0.60;99.84
75247;BME280;63844;50.042;19.224;2024-02-26T03:06:12;97976.98;;;0.60;99.58
75247;BME280;63844;50.042;19.224;2024-02-26T03:07:49;97972.33;;;0.63;100.00
75247;BME280;63844;50.042;19.224;2024-02-26T03:09:25;97974.64;;;0.66;100.00
75247;BME280;63844;50.042;19.224;2024-02-26T03:11:02;97973.11;;;0.65;100.00
75247;BME280;63844;50.042;19.224;2024-02-26T03:12:38;97971.27;;;0.63;99.93
75247;BME280;63844;50.042;19.224;2024-02-26T03:14:15;97972.60;;;0.65;100.00
75247;BME280;63844;50.042;19.224;2024-02-26T03:15:52;97970.15;;;0.65;100.00
75247;BME280;63844;50.042;19.224;2024-02-26T03:17:29;97966.08;;;0.66;99.77
75247;BME280;63844;50.042;19.224;2024-02-26T03:19:05;97960.95;;;0.69;100.00
75247;BME280;63844;50.042;19.224;2024-02-26T03:20:42;97963.63;;;0.72;100.00
75247;BME280;63844;50.042;19.224;2024-02-26T03:22:19;97958.36;;;0.73;100.00
75247;BME280;63844;50.042;19.224;2024-02-26T03:23:56;97954.74;;;0.76;100.00
75247;BME280;63844;50.042;19.224;2024-02-26T03:25:33;97951.67;;;0.78;100.00
75247;BME280;63844;50.042;19.224;2024-02-26T03:27:10;97950.53;;;0.76;100.00
75247;BME280;63844;50.042;19.224;2024-02-26T03:28:47;97950.54;;;0.76;100.00
75247;BME280;63844;50.042;19.224;2024-02-26T03:30:23;97957.35;;;0.76;100.00
75247;BME280;63844;50.042;19.224;2024-02-26T03:32:00;97955.36;;;0.74;100.00
75247;BME280;63844;50.042;19.224;2024-02-26T03:33:36;97957.77;;;0.74;100.00
75247;BME280;63844;50.042;19.224;2024-02-26T03:35:13;97952.25;;;0.73;100.00
75247;BME280;63844;50.042;19.224;2024-02-26T03:36:49;97948.73;;;0.70;100.00
75247;BME280;63844;50.042;19.224;2024-02-26T03:38:26;97948.17;;;0.66;100.00
75247;BME280;63844;50.042;19.224;2024-02-26T03:40:02;97948.64;;;0.63;100.00
75247;BME280;63844;50.042;19.224;2024-02-26T03:41:39;97947.60;;;0.63;100.00
75247;BME280;63844;50.042;19.224;2024-02-26T03:43:16;97941.80;;;0.60;100.00
75247;BME280;63844;50.042;19.224;2024-02-26T03:44:53;97945.86;;;0.59;100.00
75247;BME280;63844;50.042;19.224;2024-02-26T03:46:29;97943.45;;;0.58;100.00
75247;BME280;63844;50.042;19.224;2024-02-26T03:48:06;97940.73;;;0.57;100.00
75247;BME280;63844;50.042;19.224;2024-02-26T03:49:43;97937.43;;;0.57;100.00
75247;BME280;63844;50.042;19.224;2024-02-26T03:51:19;97940.36;;;0.57;100.00
75247;BME280;63844;50.042;19.224;2024-02-26T03:52:56;97937.90;;;0.58;100.00
75247;BME280;63844;50.042;19.224;2024-02-26T03:54:33;97939.52;;;0.57;100.00
75247;BME280;63844;50.042;19.224;2024-02-26T03:56:11;97937.02;;;0.55;100.00
75247;BME280;63844;50.042;19.224;2024-02-26T03:57:49;97933.70;;;0.55;100.00
75247;BME280;63844;50.042;19.224;2024-02-26T03:59:25;97932.84;;;0.54;100.00
75247;BME280;63844;50.042;19.224;2024-02-26T04:01:03;97932.52;;;0.54;100.00
75247;BME280;63844;50.042;19.224;2024-02-26T04:02:39;97932.04;;;0.53;100.00
75247;BME280;63844;50.042;19.224;2024-02-26T04:04:16;97934.30;;;0.53;100.00
75247;BME280;63844;50.042;19.224;2024-02-26T04:05:52;97932.42;;;0.52;100.00
75247;BME280;63844;50.042;19.224;2024-02-26T04:07:28;97930.80;;;0.53;100.00
75247;BME280;63844;50.042;19.224;2024-02-26T04:09:05;97931.01;;;0.52;100.00
75247;BME280;63844;50.042;19.224;2024-02-26T04:10:41;97927.44;;;0.50;100.00
75247;BME280;63844;50.042;19.224;2024-02-26T04:12:18;97932.14;;;0.50;100.00
75247;BME280;63844;50.042;19.224;2024-02-26T04:13:54;97923.23;;;0.51;100.00
75247;BME280;63844;50.042;19.224;2024-02-26T04:15:32;97929.30;;;0.52;100.00
75247;BME280;63844;50.042;19.224;2024-02-26T04:17:09;97921.58;;;0.49;100.00
75247;BME280;63844;50.042;19.224;2024-02-26T04:18:45;97919.71;;;0.48;100.00
75247;BME280;63844;50.042;19.224;2024-02-26T04:20:22;97916.31;;;0.46;100.00
75247;BME280;63844;50.042;19.224;2024-02-26T04:21:59;97920.81;;;0.47;100.00
75247;BME280;63844;50.042;19.224;2024-02-26T04:23:36;97921.64;;;0.47;100.00
75247;BME280;63844;50.042;19.224;2024-02-26T04:25:12;97918.47;;;0.48;100.00
75247;BME280;63844;50.042;19.224;2024-02-26T04:26:49;97911.89;;;0.48;100.00
75247;BME280;63844;50.042;19.224;2024-02-26T04:28:26;97913.48;;;0.47;100.00
75247;BME280;63844;50.042;19.224;2024-02-26T04:30:06;97909.95;;;0.44;100.00
75247;BME280;63844;50.042;19.224;2024-02-26T04:31:43;97904.36;;;0.40;100.00
75247;BME280;63844;50.042;19.224;2024-02-26T04:33:20;97906.17;;;0.39;100.00
75247;BME280;63844;50.042;19.224;2024-02-26T04:34:57;97906.89;;;0.38;100.00
75247;BME280;63844;50.042;19.224;2024-02-26T04:36:33;97904.38;;;0.36;100.00
75247;BME280;63844;50.042;19.224;2024-02-26T04:38:10;97903.04;;;0.35;100.00
75247;BME280;63844;50.042;19.224;2024-02-26T04:39:46;97904.11;;;0.34;100.00
75247;BME280;63844;50.042;19.224;2024-02-26T04:41:23;97906.23;;;0.33;100.00
75247;BME280;63844;50.042;19.224;2024-02-26T04:42:59;97900.91;;;0.32;100.00
75247;BME280;63844;50.042;19.224;2024-02-26T04:44:36;97898.52;;;0.31;100.00
75247;BME280;63844;50.042;19.224;2024-02-26T04:46:12;97900.34;;;0.29;100.00
75247;BME280;63844;50.042;19.224;2024-02-26T04:47:49;97895.09;;;0.30;100.00
75247;BME280;63844;50.042;19.224;2024-02-26T04:49:26;97898.11;;;0.28;99.98
75247;BME280;63844;50.042;19.224;2024-02-26T04:51:02;97894.86;;;0.27;99.71
75247;BME280;63844;50.042;19.224;2024-02-26T04:52:39;97896.75;;;0.27;100.00
75247;BME280;63844;50.042;19.224;2024-02-26T04:54:15;97900.05;;;0.27;100.00
75247;BME280;63844;50.042;19.224;2024-02-26T04:55:52;97899.27;;;0.26;100.00
75247;BME280;63844;50.042;19.224;2024-02-26T04:57:28;97898.30;;;0.24;100.00
75247;BME280;63844;50.042;19.224;2024-02-26T04:59:05;97900.42;;;0.22;100.00
75247;BME280;63844;50.042;19.224;2024-02-26T05:00:41;97898.38;;;0.21;100.00
75247;BME280;63844;50.042;19.224;2024-02-26T05:02:18;97900.56;;;0.19;100.00
75247;BME280;63844;50.042;19.224;2024-02-26T05:03:54;97902.48;;;0.19;100.00
75247;BME280;63844;50.042;19.224;2024-02-26T05:05:31;97901.73;;;0.16;100.00
75247;BME280;63844;50.042;19.224;2024-02-26T05:07:07;97905.48;;;0.14;100.00
75247;BME280;63844;50.042;19.224;2024-02-26T05:08:44;97905.80;;;0.10;100.00
75247;BME280;63844;50.042;19.224;2024-02-26T05:10:22;97905.47;;;0.10;100.00
75247;BME280;63844;50.042;19.224;2024-02-26T05:11:58;97905.11;;;0.10;100.00
75247;BME280;63844;50.042;19.224;2024-02-26T05:13:35;97906.77;;;0.12;100.00
75247;BME280;63844;50.042;19.224;2024-02-26T05:15:11;97908.58;;;0.10;100.00
75247;BME280;63844;50.042;19.224;2024-02-26T05:16:54;97907.58;;;0.09;100.00
75247;BME280;63844;50.042;19.224;2024-02-26T05:18:30;97907.30;;;0.08;100.00
75247;BME280;63844;50.042;19.224;2024-02-26T05:20:07;97905.25;;;0.07;100.00
75247;BME280;63844;50.042;19.224;2024-02-26T05:21:44;97904.88;;;0.08;100.00
75247;BME280;63844;50.042;19.224;2024-02-26T05:23:20;97905.96;;;0.07;100.00
75247;BME280;63844;50.042;19.224;2024-02-26T05:24:57;97908.86;;;0.08;100.00
75247;BME280;63844;50.042;19.224;2024-02-26T05:26:33;97910.58;;;0.08;100.00
75247;BME280;63844;50.042;19.224;2024-02-26T05:28:10;97910.58;;;0.08;100.00
75247;BME280;63844;50.042;19.224;2024-02-26T05:29:46;97909.30;;;0.06;100.00
75247;BME280;63844;50.042;19.224;2024-02-26T05:31:22;97910.27;;;0.03;100.00
75247;BME280;63844;50.042;19.224;2024-02-26T05:32:59;97913.10;;;0.02;100.00
75247;BME280;63844;50.042;19.224;2024-02-26T05:34:35;97916.65;;;0.01;100.00
75247;BME280;63844;50.042;19.224;2024-02-26T05:36:18;97914.20;;;0.01;100.00
75247;BME280;63844;50.042;19.224;2024-02-26T05:37:55;97913.00;;;0.00;100.00
75247;BME280;63844;50.042;19.224;2024-02-26T05:39:32;97916.83;;;0.00;100.00
75247;BME280;63844;50.042;19.224;2024-02-26T05:41:08;97914.19;;;0.01;100.00
75247;BME280;63844;50.042;19.224;2024-02-26T05:42:45;97913.77;;;0.03;100.00
75247;BME280;63844;50.042;19.224;2024-02-26T05:44:22;97913.67;;;0.05;100.00
75247;BME280;63844;50.042;19.224;2024-02-26T05:45:59;97914.86;;;0.06;100.00
75247;BME280;63844;50.042;19.224;2024-02-26T05:47:35;97915.48;;;0.07;100.00
75247;BME280;63844;50.042;19.224;2024-02-26T05:49:12;97916.00;;;0.08;100.00
75247;BME280;63844;50.042;19.224;2024-02-26T05:50:48;97916.69;;;0.08;100.00
75247;BME280;63844;50.042;19.224;2024-02-26T05:52:25;97919.05;;;0.10;100.00
75247;BME280;63844;50.042;19.224;2024-02-26T05:54:01;97919.32;;;0.11;100.00
75247;BME280;63844;50.042;19.224;2024-02-26T05:55:38;97919.42;;;0.13;100.00
75247;BME280;63844;50.042;19.224;2024-02-26T05:57:14;97920.55;;;0.15;100.00
75247;BME280;63844;50.042;19.224;2024-02-26T05:58:51;97921.77;;;0.15;100.00
75247;BME280;63844;50.042;19.224;2024-02-26T06:00:28;97920.95;;;0.18;100.00
75247;BME280;63844;50.042;19.224;2024-02-26T06:02:05;97919.36;;;0.23;100.00
75247;BME280;63844;50.042;19.224;2024-02-26T06:03:41;97920.17;;;0.29;100.00
75247;BME280;63844;50.042;19.224;2024-02-26T06:05:18;97927.35;;;0.32;100.00
75247;BME280;63844;50.042;19.224;2024-02-26T06:06:55;97921.98;;;0.36;100.00
75247;BME280;63844;50.042;19.224;2024-02-26T06:08:31;97921.45;;;0.40;100.00
75247;BME280;63844;50.042;19.224;2024-02-26T06:10:08;97920.27;;;0.43;100.00
75247;BME280;63844;50.042;19.224;2024-02-26T06:11:44;97920.80;;;0.47;100.00
75247;BME280;63844;50.042;19.224;2024-02-26T06:13:21;97922.70;;;0.51;100.00
75247;BME280;63844;50.042;19.224;2024-02-26T06:14:57;97923.38;;;0.56;100.00
75247;BME280;63844;50.042;19.224;2024-02-26T06:16:36;97924.30;;;0.58;100.00
75247;BME280;63844;50.042;19.224;2024-02-26T06:18:13;97928.14;;;0.62;100.00
75247;BME280;63844;50.042;19.224;2024-02-26T06:19:49;97931.15;;;0.69;100.00
75247;BME280;63844;50.042;19.224;2024-02-26T06:21:26;97930.58;;;0.75;100.00
75247;BME280;63844;50.042;19.224;2024-02-26T06:23:02;97933.05;;;0.82;100.00
75247;BME280;63844;50.042;19.224;2024-02-26T06:24:39;97932.77;;;0.88;100.00
75247;BME280;63844;50.042;19.224;2024-02-26T06:26:15;97932.01;;;0.94;100.00
75247;BME280;63844;50.042;19.224;2024-02-26T06:27:52;97930.86;;;1.00;100.00
75247;BME280;63844;50.042;19.224;2024-02-26T06:29:28;97936.65;;;1.06;100.00
75247;BME280;63844;50.042;19.224;2024-02-26T06:31:05;97934.66;;;1.12;100.00
75247;BME280;63844;50.042;19.224;2024-02-26T06:32:41;97936.95;;;1.20;100.00
75247;BME280;63844;50.042;19.224;2024-02-26T06:34:18;97935.36;;;1.28;100.00
75247;BME280;63844;50.042;19.224;2024-02-26T06:35:54;97937.45;;;1.35;100.00
75247;BME280;63844;50.042;19.224;2024-02-26T06:37:31;97939.88;;;1.43;100.00
75247;BME280;63844;50.042;19.224;2024-02-26T06:39:07;97941.88;;;1.49;100.00
75247;BME280;63844;50.042;19.224;2024-02-26T06:40:45;97947.98;;;1.56;100.00
75247;BME280;63844;50.042;19.224;2024-02-26T06:42:22;97946.73;;;1.65;100.00
75247;BME280;63844;50.042;19.224;2024-02-26T06:43:58;97948.77;;;1.73;100.00
75247;BME280;63844;50.042;19.224;2024-02-26T06:45:35;97948.01;;;1.82;100.00
75247;BME280;63844;50.042;19.224;2024-02-26T06:47:11;97946.67;;;1.92;100.00
75247;BME280;63844;50.042;19.224;2024-02-26T06:48:49;97949.79;;;1.99;100.00
75247;BME280;63844;50.042;19.224;2024-02-26T06:50:25;97947.45;;;2.08;100.00
75247;BME280;63844;50.042;19.224;2024-02-26T06:52:02;97948.55;;;2.18;100.00
75247;BME280;63844;50.042;19.224;2024-02-26T06:53:38;97947.89;;;2.27;100.00
75247;BME280;63844;50.042;19.224;2024-02-26T06:55:15;97952.52;;;2.36;100.00
75247;BME280;63844;50.042;19.224;2024-02-26T06:56:51;97950.41;;;2.43;100.00
75247;BME280;63844;50.042;19.224;2024-02-26T06:58:28;97948.20;;;2.53;100.00
75247;BME280;63844;50.042;19.224;2024-02-26T07:00:04;97949.12;;;2.62;100.00
75247;BME280;63844;50.042;19.224;2024-02-26T07:01:41;97948.86;;;2.75;100.00
75247;BME280;63844;50.042;19.224;2024-02-26T07:03:18;97951.71;;;2.83;100.00
75247;BME280;63844;50.042;19.224;2024-02-26T07:04:54;97949.11;;;2.97;100.00
75247;BME280;63844;50.042;19.224;2024-02-26T07:06:32;97947.75;;;3.09;100.00
75247;BME280;63844;50.042;19.224;2024-02-26T07:08:08;97945.09;;;3.23;100.00
75247;BME280;63844;50.042;19.224;2024-02-26T07:09:45;97944.89;;;3.40;100.00
75247;BME280;63844;50.042;19.224;2024-02-26T07:11:22;97946.01;;;3.58;100.00
75247;BME280;63844;50.042;19.224;2024-02-26T07:12:58;97942.48;;;3.78;100.00
75247;BME280;63844;50.042;19.224;2024-02-26T07:14:35;97945.38;;;3.95;100.00
75247;BME280;63844;50.042;19.224;2024-02-26T07:16:13;97945.42;;;4.10;100.00
75247;BME280;63844;50.042;19.224;2024-02-26T07:17:50;97938.23;;;4.22;100.00
75247;BME280;63844;50.042;19.224;2024-02-26T07:19:27;97940.46;;;4.35;100.00
75247;BME280;63844;50.042;19.224;2024-02-26T07:21:04;97939.54;;;4.45;100.00
75247;BME280;63844;50.042;19.224;2024-02-26T07:22:40;97937.59;;;4.54;100.00
75247;BME280;63844;50.042;19.224;2024-02-26T07:24:18;97934.99;;;4.66;100.00
75247;BME280;63844;50.042;19.224;2024-02-26T07:25:55;97934.48;;;4.77;100.00
75247;BME280;63844;50.042;19.224;2024-02-26T07:27:31;97935.00;;;4.89;100.00
75247;BME280;63844;50.042;19.224;2024-02-26T07:29:08;97937.27;;;5.01;100.00
75247;BME280;63844;50.042;19.224;2024-02-26T07:30:44;97934.78;;;5.13;100.00
75247;BME280;63844;50.042;19.224;2024-02-26T07:32:21;97937.64;;;5.24;100.00
75247;BME280;63844;50.042;19.224;2024-02-26T07:33:58;97942.22;;;5.32;100.00
75247;BME280;63844;50.042;19.224;2024-02-26T07:35:35;97943.45;;;5.38;100.00
75247;BME280;63844;50.042;19.224;2024-02-26T07:37:13;97950.30;;;5.43;100.00
75247;BME280;63844;50.042;19.224;2024-02-26T07:38:49;97947.23;;;5.47;100.00
75247;BME280;63844;50.042;19.224;2024-02-26T07:40:26;97948.23;;;5.51;100.00
75247;BME280;63844;50.042;19.224;2024-02-26T07:42:03;97952.34;;;5.55;100.00
75247;BME280;63844;50.042;19.224;2024-02-26T07:43:40;97952.65;;;5.59;100.00
75247;BME280;63844;50.042;19.224;2024-02-26T07:45:17;97952.68;;;5.64;100.00
75247;BME280;63844;50.042;19.224;2024-02-26T07:46:56;97947.30;;;5.69;100.00
75247;BME280;63844;50.042;19.224;2024-02-26T07:48:32;97941.03;;;5.74;100.00
75247;BME280;63844;50.042;19.224;2024-02-26T07:50:09;97943.89;;;5.78;99.96
75247;BME280;63844;50.042;19.224;2024-02-26T07:51:48;97944.53;;;5.82;99.91
75247;BME280;63844;50.042;19.224;2024-02-26T07:53:24;97939.92;;;5.85;100.00
75247;BME280;63844;50.042;19.224;2024-02-26T07:55:01;97941.70;;;5.88;99.58
75247;BME280;63844;50.042;19.224;2024-02-26T07:56:37;97942.00;;;5.91;99.42
75247;BME280;63844;50.042;19.224;2024-02-26T07:58:14;97940.37;;;5.95;99.01
75247;BME280;63844;50.042;19.224;2024-02-26T07:59:50;97943.52;;;6.01;99.35
75247;BME280;63844;50.042;19.224;2024-02-26T08:01:27;97942.65;;;6.06;99.57
75247;BME280;63844;50.042;19.224;2024-02-26T08:03:03;97943.20;;;6.12;99.25
75247;BME280;63844;50.042;19.224;2024-02-26T08:04:40;97943.70;;;6.17;99.07
75247;BME280;63844;50.042;19.224;2024-02-26T08:06:16;97940.07;;;6.25;98.76
75247;BME280;63844;50.042;19.224;2024-02-26T08:07:53;97937.46;;;6.32;98.64
75247;BME280;63844;50.042;19.224;2024-02-26T08:09:31;97941.95;;;6.39;98.44
75247;BME280;63844;50.042;19.224;2024-02-26T08:11:07;97939.86;;;6.46;97.96
75247;BME280;63844;50.042;19.224;2024-02-26T08:12:45;97940.58;;;6.54;97.27
75247;BME280;63844;50.042;19.224;2024-02-26T08:14:21;97940.88;;;6.63;97.09
75247;BME280;63844;50.042;19.224;2024-02-26T08:15:58;97937.25;;;6.72;97.39
75247;BME280;63844;50.042;19.224;2024-02-26T08:17:35;97941.29;;;6.80;96.59
75247;BME280;63844;50.042;19.224;2024-02-26T08:19:13;97937.42;;;6.88;95.98
75247;BME280;63844;50.042;19.224;2024-02-26T08:20:51;97937.90;;;6.96;95.81
75247;BME280;63844;50.042;19.224;2024-02-26T08:22:27;97937.02;;;7.04;95.88
75247;BME280;63844;50.042;19.224;2024-02-26T08:24:04;97940.43;;;7.13;96.16
75247;BME280;63844;50.042;19.224;2024-02-26T08:25:41;97938.88;;;7.23;96.49
75247;BME280;63844;50.042;19.224;2024-02-26T08:27:18;97944.30;;;7.31;96.43
75247;BME280;63844;50.042;19.224;2024-02-26T08:28:54;97944.58;;;7.40;96.57